Home > Products > Valid Products > MTR

000
SAUS41 KBOX 191355
MTRMQE
METAR KMQE 191354Z AUTO 05010G16KT 360V080 11/M01 A3036 RMK AO1
SLP291 T01111006





000
SAUS41 KBOX 191255
MTRMQE
METAR KMQE 191254Z AUTO 03007G16KT 350V080 09/00 A3034 RMK AO1
SLP287 T00940000





000
SAUS41 KBOX 191155
MTRMQE
METAR KMQE 191154Z AUTO 36009G14KT 08/01 A3031 RMK AO1 SLP277
T00780006 10100 20061 53028





000
SAUS41 KBOX 191055
MTRMQE
METAR KMQE 191054Z AUTO 36008KT 06/02 A3029 RMK AO1 SLP267 T00610017





000
SAUS41 KBOX 190955
MTRMQE
METAR KMQE 190954Z AUTO 01009KT 07/02 A3025 RMK AO1 SLP255 T00720022





000
SAUS41 KBOX 190855
MTRMQE
METAR KMQE 190854Z AUTO 01008G15KT 08/02 A3023 RMK AO1 SLP247
T00780022 53019





000
SAUS41 KBOX 190755
MTRMQE
METAR KMQE 190754Z AUTO 01007G14KT 09/03 A3020 RMK AO1 SLP238
T00890028





000
SAUS41 KBOX 190655
MTRMQE
METAR KMQE 190654Z AUTO 36008KT 09/04 A3019 RMK AO1 SLP233 T00890039





000
SAUS41 KBOX 190555
MTRMQE
METAR KMQE 190554Z AUTO 34007KT 10/04 A3017 RMK AO1 SLP227 T01000039
10172 20100 53020





000
SAUS41 KBOX 190455
MTRMQE
METAR KMQE 190454Z AUTO 35011KT 12/03 A3015 RMK AO1 SLP218 T01170033
402330111





000
SAUS41 KBOX 190355
MTRMQE
METAR KMQE 190354Z AUTO 35010G20KT 12/05 A3013 RMK AO1 SLP213
T01220050





000
SAUS41 KBOX 190255
MTRMQE
METAR KMQE 190254Z AUTO 35007KT 13/07 A3011 RMK AO1 SLP206 T01330072
53028





000
SAUS41 KBOX 190155
MTRMQE
METAR KMQE 190154Z AUTO 36009G18KT 16/09 A3008 RMK AO1 SLP195
T01560089





000
SAUS41 KBOX 190055
MTRMQE
METAR KMQE 190054Z AUTO 36010KT 17/09 A3006 RMK AO1 SLP186 T01670089





000
SAUS41 KBOX 182355
MTRMQE
METAR KMQE 182354Z AUTO 35009G14KT 17/08 A3003 RMK AO1 SLP178
T01720078 10233 20172 53021





000
SAUS41 KBOX 182256
MTRMQE
METAR KMQE 182254Z AUTO 02004KT 18/08 A3000 RMK AO1 SLP169 T01830083





000
SAUS41 KBOX 182155
MTRMQE
METAR KMQE 182154Z AUTO 32006KT 19/08 A2998 RMK AO1 SLP164 T01940078





000
SAUS41 KBOX 182055
MTRMQE
METAR KMQE 182054Z AUTO 31006KT 21/08 A2996 RMK AO1 SLP155 T02110078
53003





000
SAUS41 KBOX 181955
MTRMQE
METAR KMQE 181954Z AUTO 29006KT 21/08 A2996 RMK AO1 SLP153 T02110083





000
SAUS41 KBOX 181855
MTRMQE
METAR KMQE 181854Z AUTO VRB03KT 22/06 A2995 RMK AO1 SLP151 T02170061





000
SAUS41 KBOX 181755
MTRMQE
METAR KMQE 181754Z AUTO VRB05KT 23/07 A2995 RMK AO1 SLP152 T02280067
10233 20128 58006





000
SAUS41 KBOX 181655
MTRMQE
METAR KMQE 181654Z AUTO 32003KT 21/07 A2997 RMK AO1 SLP157 T02110067





000
SAUS41 KBOX 181555
MTRMQE
METAR KMQE 181554Z AUTO VRB04KT 21/06 A2997 RMK AO1 SLP157 T02110061





000
SAUS41 KBOX 181455
MTRMQE
METAR KMQE 181454Z AUTO 31007KT 19/07 A2997 RMK AO1 SLP159 T01890072
50003





000
SAUS41 KBOX 181355
MTRMQE
METAR KMQE 181354Z AUTO 30007KT 18/07 A2998 RMK AO1 SLP160 T01780072





000
SAUS41 KBOX 181255
MTRMQE
METAR KMQE 181254Z AUTO 29007KT 15/08 A2997 RMK AO1 SLP160 T01500078





000
SAUS41 KBOX 181155
MTRMQE
METAR KMQE 181154Z AUTO 29010KT 13/07 A2997 RMK AO1 SLP157 T01280067
10128 20111 53008





000
SAUS41 KBOX 181055
MTRMQE
METAR KMQE 181054Z AUTO 28010KT 12/07 A2995 RMK AO1 SLP153 T01170067





000
SAUS41 KBOX 180956
MTRMQE
METAR KMQE 180954Z AUTO 28011KT 11/07 A2994 RMK AO1 SLP149 T01110067





000
SAUS41 KBOX 180855
MTRMQE
METAR KMQE 180854Z AUTO 27010KT 12/07 A2994 RMK AO1 SLP147 T01170067
55002





000
SAUS41 KBOX 180755
MTRMQE
METAR KMQE 180754Z AUTO 29010KT 12/07 A2993 RMK AO1 SLP143 T01170067





000
SAUS41 KBOX 180655
MTRMQE
METAR KMQE 180654Z AUTO 28009KT 12/07 A2993 RMK AO1 SLP146 T01220067





000
SAUS41 KBOX 180555
MTRMQE
METAR KMQE 180554Z AUTO 26009KT 12/07 A2995 RMK AO1 SLP149 T01170067
10156 20117 56007





000
SAUS41 KBOX 180455
MTRMQE
METAR KMQE 180454Z AUTO 25009KT 13/07 A2995 RMK AO1 SLP151 T01280072
402220100





000
SAUS41 KBOX 180355
MTRMQE
METAR KMQE 180354Z AUTO 26007KT 13/07 A2996 RMK AO1 SLP154 T01330067





000
SAUS41 KBOX 180255
MTRMQE
METAR KMQE 180254Z AUTO 27006KT 14/07 A2997 RMK AO1 SLP157 T01390067
58000





000
SAUS41 KBOX 180155
MTRMQE
METAR KMQE 180154Z AUTO 29007KT 14/07 A2997 RMK AO1 SLP159 T01440067





000
SAUS41 KBOX 180055
MTRMQE
METAR KMQE 180054Z AUTO 31008KT 15/06 A2998 RMK AO1 SLP160 T01500061





000
SAUS41 KBOX 172355
MTRMQE
METAR KMQE 172354Z AUTO 32008KT 16/06 A2997 RMK AO1 SLP159 T01560056
10222 20156 52012





000
SAUS41 KBOX 172255
MTRMQE
METAR KMQE 172254Z AUTO 30006KT 17/05 A2996 RMK AO1 SLP155 T01670050





000
SAUS41 KBOX 172155
MTRMQE
METAR KMQE 172154Z AUTO 30007KT 19/05 A2995 RMK AO1 SLP150 T01940050





000
SAUS41 KBOX 172055
MTRMQE
METAR KMQE 172054Z AUTO 22007KT 21/04 A2993 RMK AO1 SLP145 T02110044
56009





000
SAUS41 KBOX 171955
MTRMQE
METAR KMQE 171954Z AUTO 22008KT 21/05 A2994 RMK AO1 SLP148 T02110050





000
SAUS41 KBOX 171855
MTRMQE
METAR KMQE 171854Z AUTO VRB03KT 21/05 A2995 RMK AO1 SLP150 T02110050





000
SAUS41 KBOX 171755
MTRMQE
METAR KMQE 171754Z AUTO 25004KT 21/06 A2996 RMK AO1 SLP155 T02060056
10211 20111 58016





000
SAUS41 KBOX 171655
MTRMQE
METAR KMQE 171654Z AUTO 23004KT 19/06 A2997 RMK AO1 SLP159 T01940061





000
SAUS41 KBOX 171555
MTRMQE
METAR KMQE 171554Z AUTO VRB06KT 19/07 A3000 RMK AO1 SLP166 T01940072





000
SAUS41 KBOX 171455
MTRMQE
METAR KMQE 171454Z AUTO VRB03KT 18/07 A3001 RMK AO1 SLP171 T01780072
50000





000
SAUS41 KBOX 171355
MTRMQE
METAR KMQE 171354Z AUTO VRB03KT 16/09 A3001 RMK AO1 SLP173 T01610089





000
SAUS41 KBOX 171255
MTRMQE
METAR KMQE 171254Z AUTO 33008KT 13/09 A3001 RMK AO1 SLP173 T01330089





000
SAUS41 KBOX 171155
MTRMQE
METAR KMQE 171154Z AUTO 32008KT 11/09 A3001 RMK AO1 SLP173 T01110089
10122 20100 51009





000
SAUS41 KBOX 171055
MTRMQE
METAR KMQE 171054Z AUTO 31008KT 10/09 A3000 RMK AO1 SLP171 T01000089





000
SAUS41 KBOX 170955
MTRMQE
METAR KMQE 170954Z AUTO 32010KT 11/09 A2999 RMK AO1 SLP165 T01060089





000
SAUS41 KBOX 170855
MTRMQE
METAR KMQE 170854Z AUTO 29008KT 11/09 A2998 RMK AO1 SLP164 T01060094
53001





000
SAUS41 KBOX 170755
MTRMQE
METAR KMQE 170754Z AUTO 28008KT 11/09 A2998 RMK AO1 SLP163 T01060094





000
SAUS41 KBOX 170655
MTRMQE
METAR KMQE 170654Z AUTO 30009KT 12/11 A2998 RMK AO1 SLP160 T01170106





000
SAUS41 KBOX 170555
MTRMQE
METAR KMQE 170554Z AUTO 29009KT 12/11 A2998 RMK AO1 SLP162 T01220111
10150 20122 58001





000
SAUS41 KBOX 170455
MTRMQE
METAR KMQE 170454Z AUTO 29008KT 13/11 A2998 RMK AO1 SLP163 T01330111
401890111





000
SAUS41 KBOX 170355
MTRMQE
METAR KMQE 170354Z AUTO 29010KT 13/11 A2999 RMK AO1 SLP164 T01330111





000
SAUS41 KBOX 170255
MTRMQE
METAR KMQE 170254Z AUTO 28007KT 13/12 A2998 RMK AO1 SLP163 T01330117
50003





000
SAUS41 KBOX 170155
MTRMQE
METAR KMQE 170154Z AUTO 25006KT 14/12 A2999 RMK AO1 SLP164 T01440117





000
SAUS41 KBOX 170055
MTRMQE
METAR KMQE 170054Z AUTO 21005KT 15/12 A2999 RMK AO1 SLP164 T01500122





000
SAUS41 KBOX 162355
MTRMQE
METAR KMQE 162354Z AUTO 14003KT 15/12 A2998 RMK AO1 SLP160 T01500117
10189 20150 53005





000
SAUS41 KBOX 162255
MTRMQE
METAR KMQE 162254Z AUTO 00000KT 15/12 A2997 RMK AO1 SLP158 T01500122





000
SAUS41 KBOX 162155
MTRMQE
METAR KMQE 162154Z AUTO 10004KT 16/12 A2997 RMK AO1 SLP157 T01560122





000
SAUS41 KBOX 162055
MTRMQE
METAR KMQE 162054Z AUTO 10004KT 16/12 A2996 RMK AO1 SLP156 T01610122
55001





000
SAUS41 KBOX 161956
MTRMQE
METAR KMQE 161954Z AUTO 30006KT 17/12 A2995 RMK AO1 SLP153 T01720117





000
SAUS41 KBOX 161855
MTRMQE
METAR KMQE 161854Z AUTO 00000KT 17/12 A2996 RMK AO1 SLP154 T01720122





000
SAUS41 KBOX 161755
MTRMQE
METAR KMQE 161754Z AUTO 33005KT 18/12 A2996 RMK AO1 SLP156 T01780117
10189 20133 56015





000
SAUS41 KBOX 161655
MTRMQE
METAR KMQE 161654Z AUTO 22007KT 18/09 A2997 RMK AO1 SLP160 T01780094





000
SAUS41 KBOX 161555
MTRMQE
METAR KMQE 161554Z AUTO 22009KT 18/10 A2999 RMK AO1 SLP166 T01780100





000
SAUS41 KBOX 161455
MTRMQE
METAR KMQE 161454Z AUTO 23004KT 17/11 A3001 RMK AO1 SLP171 T01670106
58008





    US Dept of Commerce
    National Oceanic and Atmospheric Administration
    National Weather Service
    1325 East West Highway
    Silver Spring, MD 20910
    Page Author: NWS Internet Services Team
Disclaimer
Information Quality
Credits
Glossary
Privacy Policy
Freedom of Information Act (FOIA)
About Us
Career Opportunities